Time;durP1;ratioP1;P1;durP2;ratioP2;P2;SDS_P1;SDS_P2;PMS_P1;PMS_P2;Temp;Humidity;BMP_temperature;BMP_pressure;BME280_temperature;BME280_humidity;BME280_pressure;Samples;Min_cycle;Max_cycle;Signal;HPM_P1;HPM_P2
2021/12/09 00:01:49;;;;;;;15.82;7.53;;;2.10;99.90;;;;;;5073130;28;20056;-70
2021/12/09 00:04:24;;;;;;;16.15;7.78;;;2.10;99.90;;;;;;5073008;28;20051;-70
2021/12/09 00:06:50;;;;;;;21.20;7.65;;;2.30;99.90;;;;;;5063095;28;20074;-70
2021/12/09 00:09:19;;;;;;;19.17;8.88;;;2.00;99.90;;;;;;5086737;28;20052;-71
2021/12/09 00:11:46;;;;;;;17.73;8.40;;;2.10;99.90;;;;;;5080467;28;20044;-71
2021/12/09 00:14:17;;;;;;;20.73;8.30;;;2.20;99.90;;;;;;5090531;28;20111;-71
2021/12/09 00:16:45;;;;;;;22.38;7.88;;;2.00;99.90;;;;;;5087111;28;20519;-70
2021/12/09 00:19:11;;;;;;;19.30;7.88;;;2.10;99.90;;;;;;5086129;28;20404;-71
2021/12/09 00:21:37;;;;;;;15.25;7.65;;;2.20;99.90;;;;;;5087094;28;20058;-70
2021/12/09 00:24:03;;;;;;;16.27;8.43;;;2.00;99.90;;;;;;5074312;28;20131;-72
2021/12/09 00:26:29;;;;;;;13.15;7.68;;;2.00;99.90;;;;;;5106068;28;20400;-71
2021/12/09 00:28:55;;;;;;;18.02;8.45;;;1.90;99.90;;;;;;5089007;28;20048;-71
2021/12/09 00:31:21;;;;;;;17.25;8.77;;;2.20;99.90;;;;;;5087945;28;20040;-70
2021/12/09 00:33:47;;;;;;;19.08;8.40;;;1.90;99.90;;;;;;5079885;28;20044;-72
2021/12/09 00:36:26;;;;;;;21.25;8.10;;;1.80;99.90;;;;;;5080808;28;20051;-70
2021/12/09 00:38:57;;;;;;;18.13;8.95;;;1.80;99.90;;;;;;5088515;28;20048;-70
2021/12/09 00:41:23;;;;;;;18.55;8.90;;;1.70;99.90;;;;;;5118664;27;20141;-71
2021/12/09 00:43:49;;;;;;;18.45;8.32;;;1.90;99.90;;;;;;5088450;28;20393;-71
2021/12/09 00:46:15;;;;;;;20.02;9.60;;;2.10;99.90;;;;;;5087635;28;20575;-71
2021/12/09 00:48:41;;;;;;;22.52;8.18;;;1.70;99.90;;;;;;5091169;28;20052;-71
2021/12/09 00:51:08;;;;;;;24.35;9.35;;;2.00;99.90;;;;;;5087145;28;20554;-70
2021/12/09 00:53:34;;;;;;;19.73;9.30;;;1.80;99.90;;;;;;5070774;28;20161;-70
2021/12/09 00:56:00;;;;;;;16.10;9.05;;;1.60;99.90;;;;;;5075617;28;20396;-70
2021/12/09 00:58:26;;;;;;;20.58;9.52;;;1.60;99.90;;;;;;5088908;28;20059;-71
2021/12/09 01:00:52;;;;;;;17.17;9.38;;;1.80;99.90;;;;;;5068421;28;20044;-71
2021/12/09 01:03:19;;;;;;;19.80;9.30;;;1.60;99.90;;;;;;5071826;28;20484;-71
2021/12/09 01:05:46;;;;;;;19.35;9.82;;;1.80;99.90;;;;;;5119506;27;20044;-73
2021/12/09 01:08:12;;;;;;;21.75;10.35;;;1.50;99.90;;;;;;5085329;28;20044;-71
2021/12/09 01:10:39;;;;;;;20.88;10.07;;;2.10;99.90;;;;;;5089042;28;20032;-70
2021/12/09 01:13:05;;;;;;;18.85;9.70;;;1.60;99.90;;;;;;5086717;28;20097;-70
2021/12/09 01:15:32;;;;;;;24.35;10.90;;;1.60;99.90;;;;;;5089047;28;20058;-71
2021/12/09 01:17:57;;;;;;;18.08;9.93;;;1.50;99.90;;;;;;5072611;28;20044;-71
2021/12/09 01:20:25;;;;;;;21.38;10.95;;;1.70;99.90;;;;;;5078334;28;20097;-71
2021/12/09 01:22:56;;;;;;;20.70;10.38;;;1.60;99.90;;;;;;5087579;28;20048;-71
2021/12/09 01:25:24;;;;;;;22.55;10.80;;;2.00;99.90;;;;;;5089929;28;20485;-71
2021/12/09 01:27:51;;;;;;;24.77;11.63;;;1.60;99.90;;;;;;5090151;28;20035;-71
2021/12/09 01:30:19;;;;;;;22.77;11.13;;;2.00;99.90;;;;;;5086670;28;20051;-70
2021/12/09 01:32:50;;;;;;;19.65;10.73;;;1.50;99.90;;;;;;5068791;28;20661;-71
2021/12/09 01:35:19;;;;;;;19.95;11.43;;;1.60;99.90;;;;;;5086862;28;20043;-72
2021/12/09 01:37:46;;;;;;;20.48;11.70;;;1.60;99.90;;;;;;5085476;28;20044;-71
2021/12/09 01:40:11;;;;;;;24.25;11.75;;;1.50;99.90;;;;;;5069220;28;20050;-71
2021/12/09 01:42:37;;;;;;;23.15;11.73;;;1.50;99.90;;;;;;5068452;28;20052;-71
2021/12/09 01:45:05;;;;;;;23.90;11.80;;;2.30;99.90;;;;;;5066576;28;20052;-72
2021/12/09 01:47:31;;;;;;;31.48;12.82;;;1.50;99.90;;;;;;5089740;28;20044;-71
2021/12/09 01:49:58;;;;;;;21.88;12.25;;;1.50;99.90;;;;;;5088299;28;20052;-71
2021/12/09 01:52:24;;;;;;;21.80;11.45;;;2.00;99.90;;;;;;5086863;28;20067;-70
2021/12/09 01:54:50;;;;;;;23.27;11.43;;;1.60;99.90;;;;;;5094100;28;20101;-72
2021/12/09 01:57:16;;;;;;;26.83;11.88;;;1.50;99.90;;;;;;5069802;28;20052;-70
2021/12/09 01:59:41;;;;;;;22.30;11.00;;;1.50;99.90;;;;;;5069760;28;20481;-70
2021/12/09 02:02:07;;;;;;;23.13;11.50;;;1.40;99.90;;;;;;5083720;28;20072;-70
2021/12/09 02:04:33;;;;;;;24.13;11.50;;;1.40;99.90;;;;;;5086837;28;20076;-72
2021/12/09 02:06:59;;;;;;;26.10;12.43;;;2.40;99.90;;;;;;5093972;28;20477;-70
2021/12/09 02:09:24;;;;;;;30.23;12.70;;;1.60;99.90;;;;;;5087871;28;20044;-71
2021/12/09 02:11:50;;;;;;;27.73;12.15;;;1.40;99.90;;;;;;5069191;28;20047;-70
2021/12/09 02:14:16;;;;;;;25.45;11.85;;;1.40;99.90;;;;;;5090244;28;20043;-70
2021/12/09 02:16:42;;;;;;;26.63;12.70;;;1.30;99.90;;;;;;5066332;28;20053;-70
2021/12/09 02:19:10;;;;;;;27.73;12.73;;;1.70;99.90;;;;;;5084766;28;20040;-70
2021/12/09 02:21:36;;;;;;;31.52;13.55;;;1.90;99.90;;;;;;5087222;28;20773;-70
2021/12/09 02:24:05;;;;;;;24.60;12.52;;;1.20;99.90;;;;;;5056910;28;20101;-69
2021/12/09 02:26:38;;;;;;;24.10;12.45;;;1.20;99.90;;;;;;5087426;28;20439;-72
2021/12/09 02:29:06;;;;;;;30.05;13.40;;;1.20;99.90;;;;;;5085983;28;20083;-70
2021/12/09 02:31:32;;;;;;;25.05;13.43;;;1.30;99.90;;;;;;5086701;28;20048;-70
2021/12/09 02:33:59;;;;;;;28.00;13.10;;;1.30;99.90;;;;;;5073190;28;20097;-70
2021/12/09 02:36:26;;;;;;;25.52;13.32;;;1.70;99.90;;;;;;5062248;28;20043;-70
2021/12/09 02:38:53;;;;;;;26.90;12.82;;;1.10;99.90;;;;;;5065614;28;20512;-70
2021/12/09 02:41:23;;;;;;;34.22;12.80;;;1.60;99.90;;;;;;5083916;28;20071;-71
2021/12/09 02:43:56;;;;;;;27.60;13.90;;;1.00;99.90;;;;;;5098635;28;21006;-70
2021/12/09 02:46:26;;;;;;;28.10;13.70;;;1.10;99.90;;;;;;5082782;28;20044;-71
2021/12/09 02:48:52;;;;;;;31.63;14.80;;;1.10;99.90;;;;;;5085504;28;20140;-70
2021/12/09 02:51:18;;;;;;;29.70;14.13;;;1.10;99.90;;;;;;5086825;28;20028;-71
2021/12/09 02:53:45;;;;;;;31.98;14.90;;;1.00;99.90;;;;;;5082623;28;20105;-71
2021/12/09 02:56:12;;;;;;;29.52;14.52;;;1.10;99.90;;;;;;5066022;28;20052;-71
2021/12/09 02:58:38;;;;;;;27.00;14.88;;;1.00;99.90;;;;;;5092298;28;20094;-71
2021/12/09 03:01:15;;;;;;;31.55;14.85;;;1.60;99.90;;;;;;5084413;28;20044;-72
2021/12/09 03:03:52;;;;;;;31.67;15.05;;;1.00;99.90;;;;;;5085147;28;20047;-72
2021/12/09 03:06:27;;;;;;;31.02;15.95;;;1.20;99.90;;;;;;5065928;28;20062;-73
2021/12/09 03:08:53;;;;;;;34.17;15.95;;;1.00;99.90;;;;;;5085526;28;20052;-73
2021/12/09 03:11:21;;;;;;;32.45;16.13;;;1.00;99.90;;;;;;5091697;28;20036;-72
2021/12/09 03:13:49;;;;;;;36.20;17.05;;;1.90;99.90;;;;;;5087195;28;20072;-73
2021/12/09 03:16:19;;;;;;;36.92;16.27;;;1.30;99.90;;;;;;5086355;28;20051;-73
2021/12/09 03:18:47;;;;;;;29.67;15.07;;;1.10;99.90;;;;;;5087664;28;20032;-73
2021/12/09 03:21:21;;;;;;;34.17;15.93;;;1.30;99.90;;;;;;5092987;28;20094;-73
2021/12/09 03:23:47;;;;;;;34.80;15.05;;;1.30;99.90;;;;;;5085189;28;20047;-72
2021/12/09 03:26:14;;;;;;;36.35;16.13;;;0.90;99.90;;;;;;5083483;28;20044;-72
2021/12/09 03:28:40;;;;;;;37.90;16.13;;;1.20;99.90;;;;;;5050042;28;20123;-72
2021/12/09 03:31:06;;;;;;;40.22;16.65;;;1.00;99.90;;;;;;5071698;28;20135;-71
2021/12/09 03:33:32;;;;;;;42.33;16.67;;;1.70;99.90;;;;;;5069518;28;20401;-72
2021/12/09 03:36:04;;;;;;;33.85;16.90;;;1.00;99.90;;;;;;5083185;28;20044;-71
2021/12/09 03:38:32;;;;;;;34.17;16.02;;;1.00;99.90;;;;;;5102981;28;20074;-71
2021/12/09 03:40:58;;;;;;;37.85;16.98;;;0.90;99.90;;;;;;5082904;28;20144;-72
2021/12/09 03:43:24;;;;;;;35.20;16.85;;;0.90;99.90;;;;;;5068698;28;20079;-71
2021/12/09 03:45:53;;;;;;;42.20;17.50;;;1.00;99.90;;;;;;5083708;28;20052;-71
2021/12/09 03:48:19;;;;;;;36.33;18.00;;;0.90;99.90;;;;;;5067289;28;20599;-70
2021/12/09 03:50:45;;;;;;;38.33;17.27;;;0.90;99.90;;;;;;5072335;28;20059;-71
2021/12/09 03:53:13;;;;;;;38.60;17.33;;;1.00;99.90;;;;;;5089444;28;20515;-71
2021/12/09 03:55:39;;;;;;;36.50;17.73;;;1.20;99.90;;;;;;5087535;28;20052;-71
2021/12/09 03:58:05;;;;;;;36.53;17.70;;;1.00;99.90;;;;;;5072210;28;20123;-72
2021/12/09 04:00:31;;;;;;;37.53;17.63;;;1.00;99.90;;;;;;5071266;28;20110;-70
2021/12/09 04:02:57;;;;;;;39.67;18.30;;;1.00;99.90;;;;;;5088751;28;20094;-70
2021/12/09 04:05:23;;;;;;;43.92;18.85;;;1.00;99.90;;;;;;5104582;28;20064;-70
2021/12/09 04:07:49;;;;;;;35.85;17.58;;;1.10;99.90;;;;;;5071711;28;20059;-70
2021/12/09 04:10:17;;;;;;;39.83;18.55;;;1.50;99.90;;;;;;5086463;28;20068;-70
2021/12/09 04:12:42;;;;;;;36.63;19.48;;;2.00;99.90;;;;;;5085038;28;20056;-70
2021/12/09 04:15:10;;;;;;;42.83;20.52;;;1.00;99.90;;;;;;5067815;28;20074;-70
2021/12/09 04:17:36;;;;;;;39.20;19.42;;;1.10;99.90;;;;;;5089949;28;20056;-70
2021/12/09 04:20:06;;;;;;;44.72;20.00;;;1.10;99.90;;;;;;5091649;28;20055;-70
2021/12/09 04:22:32;;;;;;;37.40;18.13;;;1.10;99.90;;;;;;5084239;28;20135;-70
2021/12/09 04:24:59;;;;;;;40.97;19.20;;;1.10;99.90;;;;;;5074164;28;20240;-70
2021/12/09 04:27:25;;;;;;;40.95;19.23;;;1.10;99.90;;;;;;5086031;28;20044;-69
2021/12/09 04:29:53;;;;;;;38.13;19.65;;;1.20;99.90;;;;;;5088731;28;20040;-69
2021/12/09 04:32:19;;;;;;;44.63;19.85;;;1.30;99.90;;;;;;5071512;28;20072;-70
2021/12/09 04:34:46;;;;;;;42.67;20.38;;;1.20;99.90;;;;;;5087175;28;20060;-69
2021/12/09 04:37:12;;;;;;;40.00;19.88;;;1.30;99.90;;;;;;5070335;28;20108;-69
2021/12/09 04:39:38;;;;;;;46.70;19.98;;;1.30;99.90;;;;;;5089514;28;20078;-69
2021/12/09 04:42:05;;;;;;;45.45;20.23;;;1.30;99.90;;;;;;5087604;28;20135;-70
2021/12/09 04:44:31;;;;;;;45.97;21.33;;;1.30;99.90;;;;;;5083188;28;20173;-69
2021/12/09 04:47:00;;;;;;;41.80;19.02;;;1.60;99.90;;;;;;5089872;28;20131;-70
2021/12/09 04:49:26;;;;;;;35.67;19.02;;;1.30;99.90;;;;;;5087970;28;20813;-71
2021/12/09 04:51:57;;;;;;;39.40;19.75;;;1.80;99.90;;;;;;5072086;28;20464;-69
2021/12/09 04:54:23;;;;;;;42.42;19.05;;;1.90;99.90;;;;;;5090142;28;20519;-71
2021/12/09 04:56:49;;;;;;;35.20;18.13;;;1.30;99.90;;;;;;5054793;28;20135;-70
2021/12/09 04:59:16;;;;;;;42.88;19.25;;;1.20;99.90;;;;;;5068726;28;20135;-69
2021/12/09 05:01:48;;;;;;;35.08;18.48;;;1.30;99.90;;;;;;5068460;28;20036;-70
2021/12/09 05:04:13;;;;;;;;;;;1.60;99.90;;;;;;5071666;28;20075;-69
2021/12/09 05:06:39;;;;;;;41.50;18.40;;;1.30;99.90;;;;;;5085526;28;19967;-69
2021/12/09 05:09:10;;;;;;;40.50;18.73;;;1.30;99.90;;;;;;5091646;28;20464;-70
2021/12/09 05:14:04;;;;;;;42.33;19.35;;;1.30;99.90;;;;;;5085479;28;20096;-71
2021/12/09 05:16:30;;;;;;;41.25;18.13;;;1.20;99.90;;;;;;5081707;28;20075;-69
2021/12/09 05:18:58;;;;;;;44.20;19.70;;;1.20;99.90;;;;;;5089776;28;20056;-69
2021/12/09 05:21:29;;;;;;;42.03;19.02;;;1.30;99.90;;;;;;5076118;28;20591;-70
2021/12/09 05:23:57;;;;;;;40.33;19.65;;;2.20;99.90;;;;;;5102379;28;20062;-71
2021/12/09 05:26:28;;;;;;;43.75;18.63;;;1.70;99.90;;;;;;5091303;28;20086;-68
2021/12/09 05:28:56;;;;;;;47.53;21.85;;;1.10;99.90;;;;;;5089103;28;20044;-69
2021/12/09 05:34:08;;;;;;;46.60;20.05;;;1.40;99.90;;;;;;5086670;28;20052;-69
2021/12/09 05:36:34;;;;;;;46.83;19.80;;;1.50;99.90;;;;;;5067613;28;20400;-69
2021/12/09 05:39:00;;;;;;;39.28;18.90;;;2.50;99.90;;;;;;5097125;28;20048;-69
2021/12/09 05:41:30;;;;;;;43.88;19.27;;;1.40;99.90;;;;;;5081179;28;20054;-69
2021/12/09 05:43:56;;;;;;;43.35;19.55;;;1.40;99.90;;;;;;5094706;28;20401;-69
2021/12/09 05:46:22;;;;;;;46.80;19.25;;;2.20;99.90;;;;;;5071013;28;20052;-69
2021/12/09 05:48:49;;;;;;;40.33;20.25;;;1.50;99.90;;;;;;5068774;28;20416;-68
2021/12/09 05:51:15;;;;;;;42.60;19.70;;;1.40;99.90;;;;;;5084869;28;20055;-69
2021/12/09 05:53:41;;;;;;;43.00;19.67;;;1.40;99.90;;;;;;5096208;28;20056;-69
2021/12/09 05:56:07;;;;;;;41.95;19.00;;;1.40;99.90;;;;;;5085384;28;20127;-69
2021/12/09 05:58:33;;;;;;;38.38;19.65;;;1.60;99.90;;;;;;5071999;28;20082;-71
2021/12/09 06:00:59;;;;;;;42.15;18.88;;;1.40;99.90;;;;;;5104823;28;20816;-69
2021/12/09 06:03:24;;;;;;;46.10;19.85;;;1.40;99.90;;;;;;5083706;28;20040;-69
2021/12/09 06:05:51;;;;;;;40.60;20.00;;;1.30;99.90;;;;;;5073501;28;20044;-69
2021/12/09 06:08:17;;;;;;;45.15;19.52;;;0.50;99.90;;;;;;5085231;28;20064;-69
2021/12/09 06:10:43;;;;;;;41.20;19.70;;;2.20;99.90;;;;;;5089631;28;20044;-69
2021/12/09 06:13:09;;;;;;;45.38;21.00;;;1.30;99.90;;;;;;5073365;28;20485;-70
2021/12/09 06:15:35;;;;;;;44.40;20.02;;;1.30;99.90;;;;;;5090061;28;20051;-70
2021/12/09 06:18:00;;;;;;;42.58;20.27;;;1.60;99.90;;;;;;5072626;28;20035;-69
2021/12/09 06:20:27;;;;;;;44.05;20.00;;;1.20;99.90;;;;;;5090409;28;20610;-71
2021/12/09 06:22:53;;;;;;;41.72;19.90;;;1.20;99.90;;;;;;5090878;28;20116;-70
2021/12/09 06:25:19;;;;;;;45.28;19.92;;;1.20;99.90;;;;;;5090701;28;20122;-69
2021/12/09 06:27:48;;;;;;;45.63;19.88;;;1.60;99.90;;;;;;5090042;28;20044;-70
2021/12/09 06:30:15;;;;;;;43.13;20.20;;;1.10;99.90;;;;;;5114166;27;20072;-69
2021/12/09 06:32:41;;;;;;;50.33;20.45;;;1.20;99.90;;;;;;5114852;27;20051;-70
2021/12/09 06:35:07;;;;;;;46.13;20.77;;;1.80;99.90;;;;;;5090355;28;20040;-70
2021/12/09 06:37:38;;;;;;;47.28;21.50;;;1.10;99.90;;;;;;5090586;28;20055;-71
2021/12/09 06:40:05;;;;;;;55.08;22.25;;;0.30;99.90;;;;;;5090815;28;20040;-70
2021/12/09 06:42:31;;;;;;;44.35;20.13;;;1.10;99.90;;;;;;5073854;28;20044;-71
2021/12/09 06:44:59;;;;;;;50.25;22.35;;;1.10;99.90;;;;;;5091295;28;20489;-69
2021/12/09 06:47:25;;;;;;;47.63;22.27;;;2.00;99.90;;;;;;5090443;28;20131;-71
2021/12/09 06:49:51;;;;;;;45.17;21.15;;;1.80;99.90;;;;;;5089710;28;20135;-70
2021/12/09 06:52:18;;;;;;;48.05;22.20;;;2.00;99.90;;;;;;5090474;28;20457;-70
2021/12/09 06:54:44;;;;;;;50.35;22.85;;;1.80;99.90;;;;;;5089920;28;20392;-71
2021/12/09 06:57:10;;;;;;;57.00;23.08;;;1.10;99.90;;;;;;5090674;28;20040;-70
2021/12/09 06:59:36;;;;;;;48.70;21.30;;;1.10;99.90;;;;;;5070478;28;20048;-70
2021/12/09 07:02:02;;;;;;;52.95;22.45;;;1.00;99.90;;;;;;5090433;28;20063;-70
2021/12/09 07:04:28;;;;;;;49.83;22.27;;;1.10;99.90;;;;;;5090521;28;20075;-70
2021/12/09 07:06:54;;;;;;;50.15;22.52;;;1.10;99.90;;;;;;5073014;28;20130;-71
2021/12/09 07:09:21;;;;;;;49.00;21.98;;;1.10;99.90;;;;;;5089761;28;20039;-71
2021/12/09 07:11:51;;;;;;;49.05;21.98;;;1.30;99.90;;;;;;5122984;27;20052;-71
2021/12/09 07:14:18;;;;;;;53.08;22.05;;;1.80;99.90;;;;;;5090521;28;20088;-72
2021/12/09 07:16:44;;;;;;;45.67;22.27;;;1.60;99.90;;;;;;5089804;28;20051;-70
2021/12/09 07:19:10;;;;;;;54.90;22.02;;;1.00;99.90;;;;;;5072778;28;20074;-69
2021/12/09 07:21:35;;;;;;;52.63;22.95;;;1.30;99.90;;;;;;5101319;28;20045;-70
2021/12/09 07:24:02;;;;;;;50.00;22.67;;;1.50;99.90;;;;;;5106230;28;20489;-69
2021/12/09 07:26:30;;;;;;;58.13;23.38;;;1.20;99.90;;;;;;5062129;28;20048;-70
2021/12/09 07:28:56;;;;;;;53.33;23.45;;;1.30;99.90;;;;;;5089744;28;20443;-72
2021/12/09 07:31:24;;;;;;;48.85;21.83;;;1.10;99.90;;;;;;5089685;28;20043;-70
2021/12/09 07:33:54;;;;;;;43.70;21.30;;;1.10;99.90;;;;;;5089495;28;20059;-70
2021/12/09 07:36:20;;;;;;;48.95;23.25;;;1.10;99.90;;;;;;5089480;28;20059;-70
2021/12/09 07:38:46;;;;;;;60.72;22.50;;;1.60;99.90;;;;;;5089810;28;20044;-69
2021/12/09 07:41:16;;;;;;;51.80;22.80;;;1.00;99.90;;;;;;5072854;28;20044;-70
2021/12/09 07:43:42;;;;;;;55.10;21.25;;;1.10;99.90;;;;;;5089762;28;20078;-70
2021/12/09 07:46:09;;;;;;;51.85;21.38;;;1.00;99.90;;;;;;5098452;28;20048;-70
2021/12/09 07:48:35;;;;;;;49.78;22.02;;;1.10;99.90;;;;;;5093937;28;20560;-70
2021/12/09 07:51:01;;;;;;;51.95;22.27;;;1.00;99.90;;;;;;5093003;28;20130;-70
2021/12/09 07:53:27;;;;;;;50.97;21.65;;;1.10;99.90;;;;;;5077689;28;20036;-70
2021/12/09 07:55:54;;;;;;;54.83;22.73;;;1.10;99.90;;;;;;5076442;28;20400;-72
2021/12/09 07:58:20;;;;;;;53.03;21.52;;;1.00;99.90;;;;;;5072989;28;20040;-70
2021/12/09 08:00:46;;;;;;;51.35;22.77;;;1.10;99.90;;;;;;5092870;28;20056;-70
2021/12/09 08:03:12;;;;;;;56.72;22.30;;;1.10;99.90;;;;;;5092539;28;20569;-70
2021/12/09 08:05:42;;;;;;;52.30;22.27;;;1.10;99.90;;;;;;5076141;28;20070;-71
2021/12/09 08:08:08;;;;;;;47.92;21.73;;;1.10;99.90;;;;;;5093264;28;20048;-70
2021/12/09 08:10:34;;;;;;;57.33;23.15;;;1.20;99.90;;;;;;5093330;28;20089;-70
2021/12/09 08:13:01;;;;;;;50.08;22.58;;;1.10;99.90;;;;;;5093259;28;20121;-70
2021/12/09 08:15:35;;;;;;;44.95;21.15;;;1.70;99.90;;;;;;5075667;28;20048;-70
2021/12/09 08:18:14;;;;;;;47.67;21.15;;;1.10;99.90;;;;;;5093525;28;20044;-71
2021/12/09 08:20:41;;;;;;;48.53;21.65;;;1.10;99.90;;;;;;5092965;28;20055;-71
2021/12/09 08:23:07;;;;;;;61.35;21.95;;;1.10;99.90;;;;;;5075715;28;20044;-72
2021/12/09 08:25:32;;;;;;;51.40;22.00;;;1.40;99.90;;;;;;5075666;28;20051;-70
2021/12/09 08:27:58;;;;;;;52.55;22.55;;;1.20;99.90;;;;;;5092592;28;20050;-69
2021/12/09 08:30:25;;;;;;;49.13;21.10;;;1.80;99.90;;;;;;5093243;28;20052;-69
2021/12/09 08:32:53;;;;;;;49.63;22.42;;;1.20;99.90;;;;;;5092119;28;20058;-69
2021/12/09 08:35:19;;;;;;;48.40;21.92;;;1.20;99.90;;;;;;5075339;28;20051;-69
2021/12/09 08:37:46;;;;;;;45.28;21.00;;;1.30;99.90;;;;;;5059304;28;20151;-70
2021/12/09 08:40:14;;;;;;;43.33;20.23;;;1.20;99.90;;;;;;5092688;28;20374;-69
2021/12/09 08:42:41;;;;;;;48.83;21.85;;;1.30;99.90;;;;;;5092013;28;20124;-69
2021/12/09 08:45:09;;;;;;;53.67;20.38;;;1.30;99.90;;;;;;5092074;28;20488;-69
2021/12/09 08:47:37;;;;;;;49.67;21.55;;;1.40;99.90;;;;;;5046501;28;20040;-70
2021/12/09 08:50:05;;;;;;;51.90;20.77;;;2.30;99.90;;;;;;5075212;28;20052;-71
2021/12/09 08:52:31;;;;;;;42.97;19.55;;;1.40;99.90;;;;;;5076815;28;20480;-69
2021/12/09 08:54:56;;;;;;;50.92;20.85;;;1.40;99.90;;;;;;5091389;28;20050;-70
2021/12/09 08:57:23;;;;;;;43.25;21.17;;;1.60;99.90;;;;;;5046629;28;20101;-71
2021/12/09 08:59:49;;;;;;;46.33;20.80;;;1.50;99.90;;;;;;5075087;28;20076;-70
2021/12/09 09:02:15;;;;;;;55.58;21.33;;;2.50;99.90;;;;;;5091853;28;20558;-71
2021/12/09 09:04:41;;;;;;;52.92;21.77;;;2.20;99.90;;;;;;5074237;28;20048;-72
2021/12/09 09:07:08;;;;;;;41.38;21.13;;;1.70;99.90;;;;;;5091436;28;20048;-72
2021/12/09 09:09:36;;;;;;;45.40;21.02;;;1.70;99.90;;;;;;5091490;28;20048;-72
2021/12/09 09:12:05;;;;;;;40.67;20.40;;;1.80;99.90;;;;;;5074680;28;20067;-71
2021/12/09 09:14:32;;;;;;;46.25;20.27;;;1.90;99.90;;;;;;5092041;28;20047;-72
2021/12/09 09:16:58;;;;;;;46.40;20.48;;;2.00;99.90;;;;;;5087342;28;20088;-71
2021/12/09 09:19:24;;;;;;;44.42;19.67;;;2.00;99.90;;;;;;5092454;28;20417;-71
2021/12/09 09:21:50;;;;;;;37.78;19.27;;;2.10;99.90;;;;;;5091713;28;20044;-71
2021/12/09 09:24:16;;;;;;;39.15;18.92;;;2.10;99.90;;;;;;5091899;28;20488;-72
2021/12/09 09:26:42;;;;;;;40.67;18.90;;;2.90;99.90;;;;;;5090573;28;20774;-71
2021/12/09 09:29:08;;;;;;;34.20;17.90;;;2.30;99.90;;;;;;5056929;28;20048;-71
2021/12/09 09:31:35;;;;;;;34.40;17.17;;;2.30;99.90;;;;;;5086412;28;20061;-70
2021/12/09 09:34:02;;;;;;;34.47;17.52;;;2.40;99.90;;;;;;5062705;28;20055;-71
2021/12/09 09:36:32;;;;;;;41.65;17.75;;;2.70;99.90;;;;;;5091514;28;20504;-71
2021/12/09 09:39:06;;;;;;;37.03;17.23;;;2.50;99.90;;;;;;5092244;28;20047;-71
2021/12/09 09:41:36;;;;;;;33.30;15.65;;;2.60;99.90;;;;;;5072644;28;20044;-70
2021/12/09 09:44:15;;;;;;;33.65;16.35;;;2.60;99.90;;;;;;5092173;28;20055;-70
2021/12/09 09:46:42;;;;;;;27.45;15.07;;;2.70;99.90;;;;;;5091369;28;20557;-69
2021/12/09 09:49:09;;;;;;;30.40;16.73;;;3.20;99.90;;;;;;5091737;28;20052;-70
2021/12/09 09:51:36;;;;;;;30.35;16.40;;;2.80;99.90;;;;;;5073662;28;20075;-69
2021/12/09 09:54:04;;;;;;;31.83;14.48;;;2.90;99.90;;;;;;5075484;28;20052;-70
2021/12/09 09:56:31;;;;;;;34.05;15.20;;;2.90;99.90;;;;;;5091236;28;20404;-69
2021/12/09 09:59:04;;;;;;;31.17;13.95;;;2.90;99.90;;;;;;5061859;28;20048;-69
2021/12/09 10:01:33;;;;;;;32.92;15.13;;;3.00;99.90;;;;;;5090952;28;20052;-69
2021/12/09 10:04:10;;;;;;;25.08;13.55;;;3.10;99.90;;;;;;5091823;28;20140;-69
2021/12/09 10:06:38;;;;;;;34.63;14.93;;;3.10;99.90;;;;;;5090288;28;20567;-69
2021/12/09 10:09:06;;;;;;;25.25;13.25;;;3.20;99.90;;;;;;5088061;28;20044;-69
2021/12/09 10:11:33;;;;;;;27.10;14.43;;;3.10;99.90;;;;;;5091226;28;20123;-69
2021/12/09 10:14:34;;;;;;;26.65;13.43;;;3.30;99.90;;;;;;5074802;28;20048;-69
2021/12/09 10:17:28;;;;;;;27.48;13.63;;;3.30;99.90;;;;;;5066479;28;20052;-69
2021/12/09 10:19:59;;;;;;;27.33;13.77;;;3.40;99.90;;;;;;5091743;28;20500;-68
2021/12/09 10:22:29;;;;;;;24.70;13.57;;;3.80;99.90;;;;;;5090624;28;20131;-68
2021/12/09 10:24:57;;;;;;;26.38;11.75;;;3.50;99.90;;;;;;5090789;28;20558;-68
2021/12/09 10:27:30;;;;;;;28.75;12.73;;;3.90;99.90;;;;;;5090829;28;20056;-69
2021/12/09 10:30:16;;;;;;;24.63;12.95;;;3.60;99.90;;;;;;5091600;28;20055;-69
2021/12/09 10:32:43;;;;;;;25.08;12.43;;;3.60;99.90;;;;;;5089492;28;20047;-69
2021/12/09 10:35:18;;;;;;;27.40;12.73;;;4.30;99.90;;;;;;5082493;28;20052;-69
2021/12/09 10:37:48;;;;;;;29.95;13.07;;;3.80;99.90;;;;;;5089274;28;20048;-68
2021/12/09 10:40:20;;;;;;;22.08;11.98;;;4.50;99.90;;;;;;5090924;28;20048;-69
2021/12/09 10:42:55;;;;;;;21.08;11.68;;;4.00;99.90;;;;;;5090417;28;20055;-69
2021/12/09 10:45:30;;;;;;;23.55;11.60;;;4.00;99.90;;;;;;5090770;28;20048;-68
2021/12/09 10:48:11;;;;;;;21.73;11.00;;;4.20;99.90;;;;;;5089054;28;20048;-68
2021/12/09 10:50:45;;;;;;;24.30;12.50;;;4.20;99.90;;;;;;5088370;28;20121;-69
2021/12/09 10:55:49;;;;;;;23.92;12.68;;;4.20;99.90;;;;;;5089601;28;20435;-69
2021/12/09 10:58:18;;;;;;;23.17;11.05;;;4.40;99.90;;;;;;5088207;28;20044;-71
2021/12/09 11:01:03;;;;;;;22.85;11.20;;;4.50;99.90;;;;;;5080415;28;20101;-69
2021/12/09 11:03:34;;;;;;;21.58;11.23;;;4.50;99.90;;;;;;5107299;28;20051;-69
2021/12/09 11:06:03;;;;;;;;;;;4.70;99.90;;;;;;5083079;28;20059;-69
2021/12/09 11:08:41;;;;;;;20.50;10.48;;;4.70;99.90;;;;;;5088219;28;19920;-70
2021/12/09 11:11:34;;;;;;;18.58;9.80;;;4.80;99.90;;;;;;5069411;28;20052;-69
2021/12/09 11:14:12;;;;;;;17.35;9.65;;;4.90;99.90;;;;;;5112593;27;20040;-70
2021/12/09 11:16:43;;;;;;;18.95;9.15;;;4.80;99.90;;;;;;5089371;28;20442;-70
2021/12/09 11:19:46;;;;;;;20.00;9.55;;;4.60;99.90;;;;;;5090680;28;20044;-69
2021/12/09 11:22:13;;;;;;;15.13;8.80;;;4.50;99.90;;;;;;5088379;28;20401;-69
2021/12/09 11:24:45;;;;;;;17.23;9.05;;;4.90;99.90;;;;;;5090077;28;20056;-70
2021/12/09 11:27:14;;;;;;;15.68;8.77;;;4.70;99.90;;;;;;5087092;28;20109;-70
2021/12/09 11:29:44;;;;;;;19.85;8.82;;;4.40;99.90;;;;;;5078493;28;20044;-69
2021/12/09 11:32:55;;;;;;;20.17;10.50;;;4.30;99.90;;;;;;5092436;28;20044;-70
2021/12/09 11:35:21;;;;;;;21.13;9.80;;;4.30;99.90;;;;;;5085576;28;20305;-70
2021/12/09 11:38:00;;;;;;;19.35;9.43;;;4.20;99.90;;;;;;5089989;28;20101;-70
2021/12/09 11:43:02;;;;;;;19.08;9.80;;;4.40;99.90;;;;;;5085097;28;20139;-71
2021/12/09 11:45:33;;;;;;;18.92;9.40;;;4.30;99.90;;;;;;5089780;28;20540;-71
2021/12/09 11:48:01;;;;;;;18.23;9.80;;;4.40;99.90;;;;;;5089953;28;20048;-70
2021/12/09 11:50:48;;;;;;;15.77;9.75;;;4.70;99.90;;;;;;5072848;28;20040;-70
2021/12/09 11:53:17;;;;;;;18.13;9.82;;;4.30;99.90;;;;;;5089782;28;20079;-70
2021/12/09 11:55:49;;;;;;;17.65;9.18;;;4.30;99.90;;;;;;5089878;28;20044;-70
2021/12/09 12:07:13;;;;;;;22.42;10.60;;;4.10;99.90;;;;;;5089763;28;19920;-70
2021/12/09 12:11:12;;;;;;;23.42;10.07;;;4.10;99.90;;;;;;5072923;28;20040;-70
2021/12/09 12:38:19;;;;;;;26.92;12.10;;;3.80;99.90;;;;;;5093057;28;20044;-71
2021/12/09 12:40:54;;;;;;;31.20;10.98;;;3.90;99.90;;;;;;5092857;28;20048;-70
2021/12/09 12:43:39;;;;;;;34.63;13.02;;;3.80;99.90;;;;;;5081710;28;20047;-70
2021/12/09 12:46:31;;;;;;;27.98;11.75;;;3.90;99.90;;;;;;5108382;28;20086;-70
2021/12/09 12:52:08;;;;;;;26.55;12.07;;;3.90;99.90;;;;;;5092455;28;20075;-70
2021/12/09 12:54:39;;;;;;;31.25;12.43;;;3.90;99.90;;;;;;5088499;28;20052;-71
2021/12/09 12:57:15;;;;;;;35.30;12.85;;;4.00;99.90;;;;;;5092881;28;20147;-71
2021/12/09 12:59:45;;;;;;;26.38;11.70;;;4.00;99.90;;;;;;5092470;28;20130;-70
2021/12/09 13:02:25;;;;;;;31.30;13.18;;;4.00;99.90;;;;;;5088979;28;20485;-72
2021/12/09 13:07:39;;;;;;;33.03;13.23;;;4.00;99.90;;;;;;5092142;28;20050;-71
2021/12/09 13:10:29;;;;;;;26.02;12.10;;;4.00;99.90;;;;;;5092584;28;20044;-70
2021/12/09 13:19:33;;;;;;;28.15;13.45;;;4.10;99.90;;;;;;5092883;28;20083;-70
2021/12/09 13:22:02;;;;;;;23.45;12.43;;;4.10;99.90;;;;;;5087684;28;20039;-71
2021/12/09 13:24:43;;;;;;;23.58;12.38;;;4.10;99.90;;;;;;5087283;28;20040;-72
2021/12/09 13:49:35;;;;;;;24.67;12.60;;;4.30;99.90;;;;;;5089720;28;20055;-70
2021/12/09 13:55:19;;;;;;;27.13;11.63;;;4.20;99.90;;;;;;5088946;28;20053;-70
2021/12/09 13:57:48;;;;;;;26.60;12.25;;;4.10;99.90;;;;;;5091143;28;20041;-71
2021/12/09 14:00:32;;;;;;;29.48;12.85;;;4.20;99.90;;;;;;5091650;28;20044;-70
2021/12/09 14:03:01;;;;;;;28.08;12.65;;;4.20;99.90;;;;;;5091711;28;20047;-70
2021/12/09 14:05:52;;;;;;;27.92;13.05;;;4.20;99.90;;;;;;5091654;28;20093;-70
2021/12/09 14:08:44;;;;;;;25.55;11.70;;;4.20;99.90;;;;;;5089302;28;20036;-70
2021/12/09 14:11:21;;;;;;;27.88;12.13;;;4.80;99.90;;;;;;5105438;28;20055;-71